sensor_id;sensor_type;location;lat;lon;timestamp;P1;durP1;ratioP1;P2;durP2;ratioP2
15153;SDS011;7677;41.896;25.004;2023-04-06T00:02:16;7.77;;;5.60;;
15153;SDS011;7677;41.896;25.004;2023-04-06T00:04:43;9.90;;;5.27;;
15153;SDS011;7677;41.896;25.004;2023-04-06T00:07:13;6.10;;;5.43;;
15153;SDS011;7677;41.896;25.004;2023-04-06T00:09:40;7.70;;;5.67;;
15153;SDS011;7677;41.896;25.004;2023-04-06T00:12:07;8.53;;;6.03;;
15153;SDS011;7677;41.896;25.004;2023-04-06T00:14:37;7.57;;;6.07;;
15153;SDS011;7677;41.896;25.004;2023-04-06T00:17:07;9.63;;;5.40;;
15153;SDS011;7677;41.896;25.004;2023-04-06T00:19:34;7.07;;;5.60;;
15153;SDS011;7677;41.896;25.004;2023-04-06T00:22:01;8.20;;;5.63;;
15153;SDS011;7677;41.896;25.004;2023-04-06T00:24:30;8.60;;;5.10;;
15153;SDS011;7677;41.896;25.004;2023-04-06T00:26:59;7.60;;;5.60;;
15153;SDS011;7677;41.896;25.004;2023-04-06T00:29:28;9.70;;;5.17;;
15153;SDS011;7677;41.896;25.004;2023-04-06T00:31:57;6.67;;;5.40;;
15153;SDS011;7677;41.896;25.004;2023-04-06T00:34:24;6.13;;;4.97;;
15153;SDS011;7677;41.896;25.004;2023-04-06T00:36:52;6.70;;;4.87;;
15153;SDS011;7677;41.896;25.004;2023-04-06T00:39:20;10.37;;;5.63;;
15153;SDS011;7677;41.896;25.004;2023-04-06T00:41:51;7.77;;;5.33;;
15153;SDS011;7677;41.896;25.004;2023-04-06T00:44:19;8.13;;;5.50;;
15153;SDS011;7677;41.896;25.004;2023-04-06T00:46:48;5.83;;;5.20;;
15153;SDS011;7677;41.896;25.004;2023-04-06T00:49:15;6.87;;;4.97;;
15153;SDS011;7677;41.896;25.004;2023-04-06T00:51:43;9.90;;;6.97;;
15153;SDS011;7677;41.896;25.004;2023-04-06T00:54:10;7.40;;;5.60;;
15153;SDS011;7677;41.896;25.004;2023-04-06T00:56:38;7.63;;;6.07;;
15153;SDS011;7677;41.896;25.004;2023-04-06T00:59:07;7.07;;;5.50;;
15153;SDS011;7677;41.896;25.004;2023-04-06T01:01:35;8.90;;;6.00;;
15153;SDS011;7677;41.896;25.004;2023-04-06T01:04:02;7.17;;;5.23;;
15153;SDS011;7677;41.896;25.004;2023-04-06T01:06:29;8.67;;;5.93;;
15153;SDS011;7677;41.896;25.004;2023-04-06T01:08:57;6.83;;;5.90;;
15153;SDS011;7677;41.896;25.004;2023-04-06T01:11:26;6.93;;;5.50;;
15153;SDS011;7677;41.896;25.004;2023-04-06T01:13:54;7.93;;;6.40;;
15153;SDS011;7677;41.896;25.004;2023-04-06T01:16:23;7.17;;;5.43;;
15153;SDS011;7677;41.896;25.004;2023-04-06T01:18:51;6.33;;;4.67;;
15153;SDS011;7677;41.896;25.004;2023-04-06T01:21:18;6.93;;;5.67;;
15153;SDS011;7677;41.896;25.004;2023-04-06T01:23:48;7.90;;;6.67;;
15153;SDS011;7677;41.896;25.004;2023-04-06T01:26:17;9.30;;;6.10;;
15153;SDS011;7677;41.896;25.004;2023-04-06T01:28:44;7.10;;;5.47;;
15153;SDS011;7677;41.896;25.004;2023-04-06T01:31:13;9.37;;;6.03;;
15153;SDS011;7677;41.896;25.004;2023-04-06T01:33:41;10.13;;;6.40;;
15153;SDS011;7677;41.896;25.004;2023-04-06T01:36:10;7.87;;;5.37;;
15153;SDS011;7677;41.896;25.004;2023-04-06T01:38:37;8.50;;;5.57;;
15153;SDS011;7677;41.896;25.004;2023-04-06T01:41:06;6.83;;;5.50;;
15153;SDS011;7677;41.896;25.004;2023-04-06T01:43:34;8.43;;;6.00;;
15153;SDS011;7677;41.896;25.004;2023-04-06T01:46:01;9.37;;;5.87;;
15153;SDS011;7677;41.896;25.004;2023-04-06T01:48:28;8.17;;;5.93;;
15153;SDS011;7677;41.896;25.004;2023-04-06T01:50:55;8.73;;;6.80;;
15153;SDS011;7677;41.896;25.004;2023-04-06T01:53:23;6.83;;;5.67;;
15153;SDS011;7677;41.896;25.004;2023-04-06T01:55:50;9.60;;;6.47;;
15153;SDS011;7677;41.896;25.004;2023-04-06T01:58:19;7.83;;;5.63;;
15153;SDS011;7677;41.896;25.004;2023-04-06T02:00:46;8.67;;;6.93;;
15153;SDS011;7677;41.896;25.004;2023-04-06T02:03:16;7.73;;;5.73;;
15153;SDS011;7677;41.896;25.004;2023-04-06T02:05:43;7.17;;;5.30;;
15153;SDS011;7677;41.896;25.004;2023-04-06T02:08:10;7.93;;;5.53;;
15153;SDS011;7677;41.896;25.004;2023-04-06T02:10:37;7.53;;;6.30;;
15153;SDS011;7677;41.896;25.004;2023-04-06T02:13:05;6.40;;;5.37;;
15153;SDS011;7677;41.896;25.004;2023-04-06T02:15:34;11.27;;;5.77;;
15153;SDS011;7677;41.896;25.004;2023-04-06T02:18:03;7.33;;;6.17;;
15153;SDS011;7677;41.896;25.004;2023-04-06T02:20:31;9.07;;;5.53;;
15153;SDS011;7677;41.896;25.004;2023-04-06T02:22:58;10.90;;;6.23;;
15153;SDS011;7677;41.896;25.004;2023-04-06T02:25:26;10.23;;;6.37;;
15153;SDS011;7677;41.896;25.004;2023-04-06T02:27:53;8.00;;;5.53;;
15153;SDS011;7677;41.896;25.004;2023-04-06T02:30:20;7.17;;;5.10;;
15153;SDS011;7677;41.896;25.004;2023-04-06T02:32:50;6.53;;;5.33;;
15153;SDS011;7677;41.896;25.004;2023-04-06T02:35:19;7.37;;;5.43;;
15153;SDS011;7677;41.896;25.004;2023-04-06T02:37:46;8.70;;;6.07;;
15153;SDS011;7677;41.896;25.004;2023-04-06T02:40:14;10.10;;;5.80;;
15153;SDS011;7677;41.896;25.004;2023-04-06T02:42:45;9.30;;;5.87;;
15153;SDS011;7677;41.896;25.004;2023-04-06T02:45:12;8.63;;;5.37;;
15153;SDS011;7677;41.896;25.004;2023-04-06T02:47:42;5.33;;;4.77;;
15153;SDS011;7677;41.896;25.004;2023-04-06T02:50:12;7.97;;;5.53;;
15153;SDS011;7677;41.896;25.004;2023-04-06T02:52:41;6.03;;;5.40;;
15153;SDS011;7677;41.896;25.004;2023-04-06T02:55:11;7.17;;;6.23;;
15153;SDS011;7677;41.896;25.004;2023-04-06T02:57:39;7.43;;;5.57;;
15153;SDS011;7677;41.896;25.004;2023-04-06T03:00:06;8.40;;;5.83;;
15153;SDS011;7677;41.896;25.004;2023-04-06T03:02:37;6.03;;;5.40;;
15153;SDS011;7677;41.896;25.004;2023-04-06T03:05:04;6.03;;;5.27;;
15153;SDS011;7677;41.896;25.004;2023-04-06T03:07:33;6.33;;;5.47;;
15153;SDS011;7677;41.896;25.004;2023-04-06T03:10:00;11.40;;;5.63;;
15153;SDS011;7677;41.896;25.004;2023-04-06T03:12:27;10.30;;;5.77;;
15153;SDS011;7677;41.896;25.004;2023-04-06T03:14:54;8.30;;;6.50;;
15153;SDS011;7677;41.896;25.004;2023-04-06T03:17:21;8.87;;;6.20;;
15153;SDS011;7677;41.896;25.004;2023-04-06T03:19:49;9.10;;;6.57;;
15153;SDS011;7677;41.896;25.004;2023-04-06T03:22:16;8.27;;;6.03;;
15153;SDS011;7677;41.896;25.004;2023-04-06T03:24:45;10.27;;;5.97;;
15153;SDS011;7677;41.896;25.004;2023-04-06T03:27:12;10.33;;;6.53;;
15153;SDS011;7677;41.896;25.004;2023-04-06T03:29:39;9.73;;;6.27;;
15153;SDS011;7677;41.896;25.004;2023-04-06T03:32:07;7.70;;;6.17;;
15153;SDS011;7677;41.896;25.004;2023-04-06T03:34:34;9.27;;;6.27;;
15153;SDS011;7677;41.896;25.004;2023-04-06T03:37:02;8.27;;;5.83;;
15153;SDS011;7677;41.896;25.004;2023-04-06T03:39:29;7.23;;;5.80;;
15153;SDS011;7677;41.896;25.004;2023-04-06T03:42:11;6.33;;;5.70;;
15153;SDS011;7677;41.896;25.004;2023-04-06T03:44:38;8.17;;;6.07;;
15153;SDS011;7677;41.896;25.004;2023-04-06T03:47:05;8.23;;;6.53;;
15153;SDS011;7677;41.896;25.004;2023-04-06T03:49:32;6.63;;;5.47;;
15153;SDS011;7677;41.896;25.004;2023-04-06T03:52:00;10.30;;;7.20;;
15153;SDS011;7677;41.896;25.004;2023-04-06T03:54:27;10.90;;;5.70;;
15153;SDS011;7677;41.896;25.004;2023-04-06T03:56:56;12.80;;;7.23;;
15153;SDS011;7677;41.896;25.004;2023-04-06T03:59:24;9.77;;;6.07;;
15153;SDS011;7677;41.896;25.004;2023-04-06T04:01:51;6.43;;;5.27;;
15153;SDS011;7677;41.896;25.004;2023-04-06T04:04:19;10.40;;;6.53;;
15153;SDS011;7677;41.896;25.004;2023-04-06T04:06:46;8.83;;;5.43;;
15153;SDS011;7677;41.896;25.004;2023-04-06T04:09:13;9.33;;;6.10;;
15153;SDS011;7677;41.896;25.004;2023-04-06T04:11:40;9.47;;;6.40;;
15153;SDS011;7677;41.896;25.004;2023-04-06T04:14:07;8.30;;;5.90;;
15153;SDS011;7677;41.896;25.004;2023-04-06T04:16:36;10.80;;;7.30;;
15153;SDS011;7677;41.896;25.004;2023-04-06T04:19:04;11.07;;;7.50;;
15153;SDS011;7677;41.896;25.004;2023-04-06T04:21:31;6.63;;;5.40;;
15153;SDS011;7677;41.896;25.004;2023-04-06T04:23:58;8.53;;;5.83;;
15153;SDS011;7677;41.896;25.004;2023-04-06T04:26:26;7.03;;;6.00;;
15153;SDS011;7677;41.896;25.004;2023-04-06T04:28:53;7.93;;;6.43;;
15153;SDS011;7677;41.896;25.004;2023-04-06T04:31:20;5.83;;;5.17;;
15153;SDS011;7677;41.896;25.004;2023-04-06T04:33:49;12.87;;;7.13;;
15153;SDS011;7677;41.896;25.004;2023-04-06T04:36:16;8.97;;;6.53;;
15153;SDS011;7677;41.896;25.004;2023-04-06T04:38:43;7.53;;;5.90;;
15153;SDS011;7677;41.896;25.004;2023-04-06T04:41:10;10.33;;;6.53;;
15153;SDS011;7677;41.896;25.004;2023-04-06T04:43:38;9.63;;;7.43;;
15153;SDS011;7677;41.896;25.004;2023-04-06T04:46:05;12.40;;;7.77;;
15153;SDS011;7677;41.896;25.004;2023-04-06T04:48:32;20.17;;;9.73;;
15153;SDS011;7677;41.896;25.004;2023-04-06T04:51:01;14.13;;;9.90;;
15153;SDS011;7677;41.896;25.004;2023-04-06T04:53:28;16.17;;;10.03;;
15153;SDS011;7677;41.896;25.004;2023-04-06T04:55:55;17.80;;;11.67;;
15153;SDS011;7677;41.896;25.004;2023-04-06T04:58:22;23.93;;;13.70;;
15153;SDS011;7677;41.896;25.004;2023-04-06T05:00:50;46.03;;;21.10;;
15153;SDS011;7677;41.896;25.004;2023-04-06T05:03:18;20.33;;;12.10;;
15153;SDS011;7677;41.896;25.004;2023-04-06T05:05:47;18.37;;;10.83;;
15153;SDS011;7677;41.896;25.004;2023-04-06T05:08:24;11.37;;;7.80;;
15153;SDS011;7677;41.896;25.004;2023-04-06T05:10:51;10.07;;;6.73;;
15153;SDS011;7677;41.896;25.004;2023-04-06T05:13:18;14.05;;;9.25;;
15153;SDS011;7677;41.896;25.004;2023-04-06T05:15:45;13.97;;;8.53;;
15153;SDS011;7677;41.896;25.004;2023-04-06T05:18:13;12.33;;;8.00;;
15153;SDS011;7677;41.896;25.004;2023-04-06T05:20:40;12.50;;;8.17;;
15153;SDS011;7677;41.896;25.004;2023-04-06T05:23:19;12.23;;;7.57;;
15153;SDS011;7677;41.896;25.004;2023-04-06T05:25:48;12.57;;;9.13;;
15153;SDS011;7677;41.896;25.004;2023-04-06T05:28:15;12.10;;;8.10;;
15153;SDS011;7677;41.896;25.004;2023-04-06T05:30:43;14.40;;;8.73;;
15153;SDS011;7677;41.896;25.004;2023-04-06T05:33:10;9.97;;;7.87;;
15153;SDS011;7677;41.896;25.004;2023-04-06T05:35:38;11.03;;;7.20;;
15153;SDS011;7677;41.896;25.004;2023-04-06T05:38:07;11.40;;;7.37;;
15153;SDS011;7677;41.896;25.004;2023-04-06T05:40:48;10.97;;;7.37;;
15153;SDS011;7677;41.896;25.004;2023-04-06T05:43:15;8.60;;;6.27;;
15153;SDS011;7677;41.896;25.004;2023-04-06T05:45:43;11.10;;;6.60;;
15153;SDS011;7677;41.896;25.004;2023-04-06T05:48:11;10.43;;;7.23;;
15153;SDS011;7677;41.896;25.004;2023-04-06T05:50:38;12.67;;;7.03;;
15153;SDS011;7677;41.896;25.004;2023-04-06T05:53:05;8.80;;;6.13;;
15153;SDS011;7677;41.896;25.004;2023-04-06T05:55:32;8.07;;;5.73;;
15153;SDS011;7677;41.896;25.004;2023-04-06T05:58:01;10.37;;;5.90;;
15153;SDS011;7677;41.896;25.004;2023-04-06T06:00:28;9.90;;;6.70;;
15153;SDS011;7677;41.896;25.004;2023-04-06T06:02:56;7.90;;;6.57;;
15153;SDS011;7677;41.896;25.004;2023-04-06T06:05:23;7.47;;;5.67;;
15153;SDS011;7677;41.896;25.004;2023-04-06T06:07:50;9.20;;;5.67;;
15153;SDS011;7677;41.896;25.004;2023-04-06T06:10:18;7.90;;;6.23;;
15153;SDS011;7677;41.896;25.004;2023-04-06T06:12:45;8.70;;;5.87;;
15153;SDS011;7677;41.896;25.004;2023-04-06T06:15:14;6.80;;;5.10;;
15153;SDS011;7677;41.896;25.004;2023-04-06T06:17:41;7.93;;;5.70;;
15153;SDS011;7677;41.896;25.004;2023-04-06T06:20:08;6.77;;;4.53;;
15153;SDS011;7677;41.896;25.004;2023-04-06T06:22:36;6.83;;;4.70;;
15153;SDS011;7677;41.896;25.004;2023-04-06T06:25:05;6.33;;;5.10;;
15153;SDS011;7677;41.896;25.004;2023-04-06T06:27:32;5.00;;;4.50;;
15153;SDS011;7677;41.896;25.004;2023-04-06T06:30:00;8.17;;;5.37;;
15153;SDS011;7677;41.896;25.004;2023-04-06T06:32:29;6.77;;;4.77;;
15153;SDS011;7677;41.896;25.004;2023-04-06T06:34:56;9.87;;;5.80;;
15153;SDS011;7677;41.896;25.004;2023-04-06T06:37:23;6.80;;;4.80;;
15153;SDS011;7677;41.896;25.004;2023-04-06T06:39:50;5.63;;;4.93;;
15153;SDS011;7677;41.896;25.004;2023-04-06T06:42:22;7.13;;;4.60;;
15153;SDS011;7677;41.896;25.004;2023-04-06T06:44:50;6.47;;;4.53;;
15153;SDS011;7677;41.896;25.004;2023-04-06T06:47:18;8.13;;;5.50;;
15153;SDS011;7677;41.896;25.004;2023-04-06T06:49:46;6.77;;;5.20;;
15153;SDS011;7677;41.896;25.004;2023-04-06T06:52:13;5.30;;;4.00;;
15153;SDS011;7677;41.896;25.004;2023-04-06T06:54:41;5.30;;;4.80;;
15153;SDS011;7677;41.896;25.004;2023-04-06T06:57:08;7.33;;;4.97;;
15153;SDS011;7677;41.896;25.004;2023-04-06T06:59:39;8.63;;;5.47;;
15153;SDS011;7677;41.896;25.004;2023-04-06T07:02:06;7.37;;;5.60;;
15153;SDS011;7677;41.896;25.004;2023-04-06T07:04:34;6.77;;;4.13;;
15153;SDS011;7677;41.896;25.004;2023-04-06T07:07:02;10.97;;;6.43;;
15153;SDS011;7677;41.896;25.004;2023-04-06T07:09:34;8.13;;;5.50;;
15153;SDS011;7677;41.896;25.004;2023-04-06T07:12:01;8.30;;;5.00;;
15153;SDS011;7677;41.896;25.004;2023-04-06T07:14:29;6.73;;;4.80;;
15153;SDS011;7677;41.896;25.004;2023-04-06T07:16:56;6.73;;;5.13;;
15153;SDS011;7677;41.896;25.004;2023-04-06T07:19:23;5.57;;;4.83;;
15153;SDS011;7677;41.896;25.004;2023-04-06T07:21:50;7.03;;;4.43;;
15153;SDS011;7677;41.896;25.004;2023-04-06T07:24:19;6.80;;;4.53;;
15153;SDS011;7677;41.896;25.004;2023-04-06T07:26:46;5.70;;;4.97;;
15153;SDS011;7677;41.896;25.004;2023-04-06T07:29:13;7.13;;;4.57;;
15153;SDS011;7677;41.896;25.004;2023-04-06T07:31:51;6.27;;;4.53;;
15153;SDS011;7677;41.896;25.004;2023-04-06T07:34:18;7.10;;;5.00;;
15153;SDS011;7677;41.896;25.004;2023-04-06T07:36:45;4.27;;;3.87;;
15153;SDS011;7677;41.896;25.004;2023-04-06T07:39:13;6.23;;;5.10;;
15153;SDS011;7677;41.896;25.004;2023-04-06T07:41:42;7.03;;;6.10;;
15153;SDS011;7677;41.896;25.004;2023-04-06T07:44:09;7.17;;;5.20;;
15153;SDS011;7677;41.896;25.004;2023-04-06T07:46:36;8.77;;;5.27;;
15153;SDS011;7677;41.896;25.004;2023-04-06T07:49:21;8.30;;;5.40;;
15153;SDS011;7677;41.896;25.004;2023-04-06T07:51:48;6.47;;;5.07;;
15153;SDS011;7677;41.896;25.004;2023-04-06T07:54:15;5.47;;;4.00;;
15153;SDS011;7677;41.896;25.004;2023-04-06T07:56:44;7.17;;;5.87;;
15153;SDS011;7677;41.896;25.004;2023-04-06T07:59:11;6.90;;;5.07;;
15153;SDS011;7677;41.896;25.004;2023-04-06T08:01:38;8.47;;;5.23;;
15153;SDS011;7677;41.896;25.004;2023-04-06T08:04:06;6.33;;;5.10;;
15153;SDS011;7677;41.896;25.004;2023-04-06T08:06:33;6.73;;;5.73;;
15153;SDS011;7677;41.896;25.004;2023-04-06T08:09:01;5.60;;;4.97;;
15153;SDS011;7677;41.896;25.004;2023-04-06T08:11:33;5.83;;;4.53;;
15153;SDS011;7677;41.896;25.004;2023-04-06T08:14:02;5.80;;;5.20;;
15153;SDS011;7677;41.896;25.004;2023-04-06T08:16:29;8.00;;;5.30;;
15153;SDS011;7677;41.896;25.004;2023-04-06T08:18:57;7.53;;;5.27;;
15153;SDS011;7677;41.896;25.004;2023-04-06T08:21:24;7.10;;;5.47;;
15153;SDS011;7677;41.896;25.004;2023-04-06T08:23:51;10.93;;;6.07;;
15153;SDS011;7677;41.896;25.004;2023-04-06T08:26:18;7.47;;;5.57;;
15153;SDS011;7677;41.896;25.004;2023-04-06T08:28:46;8.37;;;5.00;;
15153;SDS011;7677;41.896;25.004;2023-04-06T08:31:14;5.97;;;4.40;;
15153;SDS011;7677;41.896;25.004;2023-04-06T08:33:42;5.30;;;4.17;;
15153;SDS011;7677;41.896;25.004;2023-04-06T08:36:09;4.77;;;4.00;;
15153;SDS011;7677;41.896;25.004;2023-04-06T08:38:37;5.70;;;3.90;;
15153;SDS011;7677;41.896;25.004;2023-04-06T08:41:08;5.20;;;3.87;;
15153;SDS011;7677;41.896;25.004;2023-04-06T08:43:41;7.53;;;4.57;;
15153;SDS011;7677;41.896;25.004;2023-04-06T08:46:10;3.57;;;3.27;;
15153;SDS011;7677;41.896;25.004;2023-04-06T08:48:39;4.27;;;3.10;;
15153;SDS011;7677;41.896;25.004;2023-04-06T08:51:07;4.17;;;2.50;;
15153;SDS011;7677;41.896;25.004;2023-04-06T08:53:35;3.20;;;3.00;;
15153;SDS011;7677;41.896;25.004;2023-04-06T08:56:02;3.70;;;2.67;;
15153;SDS011;7677;41.896;25.004;2023-04-06T08:58:32;4.33;;;2.87;;
15153;SDS011;7677;41.896;25.004;2023-04-06T09:00:59;3.70;;;2.70;;
15153;SDS011;7677;41.896;25.004;2023-04-06T09:03:27;3.57;;;2.53;;
15153;SDS011;7677;41.896;25.004;2023-04-06T09:05:57;3.60;;;2.90;;
15153;SDS011;7677;41.896;25.004;2023-04-06T09:08:25;3.30;;;2.47;;
15153;SDS011;7677;41.896;25.004;2023-04-06T09:10:52;2.60;;;2.40;;
15153;SDS011;7677;41.896;25.004;2023-04-06T09:13:20;3.90;;;3.10;;
15153;SDS011;7677;41.896;25.004;2023-04-06T09:15:47;3.17;;;2.43;;
15153;SDS011;7677;41.896;25.004;2023-04-06T09:18:27;4.73;;;3.60;;
15153;SDS011;7677;41.896;25.004;2023-04-06T09:21:00;3.20;;;2.53;;
15153;SDS011;7677;41.896;25.004;2023-04-06T09:23:31;3.83;;;2.83;;
15153;SDS011;7677;41.896;25.004;2023-04-06T09:26:05;3.83;;;2.33;;
15153;SDS011;7677;41.896;25.004;2023-04-06T09:28:43;5.80;;;2.70;;
15153;SDS011;7677;41.896;25.004;2023-04-06T09:31:11;5.30;;;2.70;;
15153;SDS011;7677;41.896;25.004;2023-04-06T09:33:40;3.83;;;3.00;;
15153;SDS011;7677;41.896;25.004;2023-04-06T09:36:09;3.30;;;2.80;;
15153;SDS011;7677;41.896;25.004;2023-04-06T09:38:37;3.23;;;2.93;;
15153;SDS011;7677;41.896;25.004;2023-04-06T09:41:05;2.60;;;2.40;;
15153;SDS011;7677;41.896;25.004;2023-04-06T09:43:32;3.00;;;2.80;;
15153;SDS011;7677;41.896;25.004;2023-04-06T09:46:00;4.73;;;3.37;;
15153;SDS011;7677;41.896;25.004;2023-04-06T09:48:30;4.13;;;3.23;;
15153;SDS011;7677;41.896;25.004;2023-04-06T09:50:59;4.90;;;3.33;;
15153;SDS011;7677;41.896;25.004;2023-04-06T09:53:30;2.37;;;2.17;;
15153;SDS011;7677;41.896;25.004;2023-04-06T09:55:58;3.60;;;2.93;;
15153;SDS011;7677;41.896;25.004;2023-04-06T09:58:28;5.27;;;2.83;;
15153;SDS011;7677;41.896;25.004;2023-04-06T10:03:49;3.60;;;2.60;;
15153;SDS011;7677;41.896;25.004;2023-04-06T10:06:22;3.53;;;3.13;;
15153;SDS011;7677;41.896;25.004;2023-04-06T10:08:52;7.53;;;3.23;;
15153;SDS011;7677;41.896;25.004;2023-04-06T10:11:21;4.53;;;2.90;;
15153;SDS011;7677;41.896;25.004;2023-04-06T10:13:49;3.23;;;2.90;;
15153;SDS011;7677;41.896;25.004;2023-04-06T10:16:17;3.20;;;2.90;;
15153;SDS011;7677;41.896;25.004;2023-04-06T10:18:46;2.93;;;2.63;;
15153;SDS011;7677;41.896;25.004;2023-04-06T10:21:15;3.47;;;2.90;;
15153;SDS011;7677;41.896;25.004;2023-04-06T10:23:47;3.97;;;2.97;;
15153;SDS011;7677;41.896;25.004;2023-04-06T10:26:17;3.10;;;2.80;;
15153;SDS011;7677;41.896;25.004;2023-04-06T10:28:46;4.13;;;2.63;;
15153;SDS011;7677;41.896;25.004;2023-04-06T10:31:14;3.67;;;2.83;;
15153;SDS011;7677;41.896;25.004;2023-04-06T10:33:42;4.83;;;3.50;;
15153;SDS011;7677;41.896;25.004;2023-04-06T10:36:22;3.53;;;2.67;;
15153;SDS011;7677;41.896;25.004;2023-04-06T10:39:04;3.20;;;2.77;;
15153;SDS011;7677;41.896;25.004;2023-04-06T10:41:34;4.20;;;2.80;;
15153;SDS011;7677;41.896;25.004;2023-04-06T10:44:02;3.70;;;3.00;;
15153;SDS011;7677;41.896;25.004;2023-04-06T10:46:30;3.37;;;3.07;;
15153;SDS011;7677;41.896;25.004;2023-04-06T10:48:58;3.93;;;2.87;;
15153;SDS011;7677;41.896;25.004;2023-04-06T10:51:37;3.40;;;3.10;;
15153;SDS011;7677;41.896;25.004;2023-04-06T10:54:05;4.80;;;3.13;;
15153;SDS011;7677;41.896;25.004;2023-04-06T10:56:36;3.27;;;2.90;;
15153;SDS011;7677;41.896;25.004;2023-04-06T10:59:05;3.20;;;2.70;;
15153;SDS011;7677;41.896;25.004;2023-04-06T11:01:33;4.30;;;3.20;;
15153;SDS011;7677;41.896;25.004;2023-04-06T11:04:01;3.57;;;2.80;;
15153;SDS011;7677;41.896;25.004;2023-04-06T11:06:28;3.73;;;3.20;;
15153;SDS011;7677;41.896;25.004;2023-04-06T11:08:57;3.53;;;2.70;;
15153;SDS011;7677;41.896;25.004;2023-04-06T11:11:25;5.03;;;2.97;;
15153;SDS011;7677;41.896;25.004;2023-04-06T11:13:55;3.83;;;2.93;;
15153;SDS011;7677;41.896;25.004;2023-04-06T11:16:23;2.70;;;2.50;;
15153;SDS011;7677;41.896;25.004;2023-04-06T11:18:52;4.20;;;3.80;;
15153;SDS011;7677;41.896;25.004;2023-04-06T11:21:32;4.13;;;2.77;;
15153;SDS011;7677;41.896;25.004;2023-04-06T11:24:04;3.60;;;2.97;;
15153;SDS011;7677;41.896;25.004;2023-04-06T11:26:36;3.30;;;2.77;;
15153;SDS011;7677;41.896;25.004;2023-04-06T11:29:05;5.03;;;2.90;;
15153;SDS011;7677;41.896;25.004;2023-04-06T11:31:37;3.93;;;3.53;;
15153;SDS011;7677;41.896;25.004;2023-04-06T11:34:09;4.37;;;3.20;;
15153;SDS011;7677;41.896;25.004;2023-04-06T11:36:39;3.40;;;2.57;;
15153;SDS011;7677;41.896;25.004;2023-04-06T11:39:08;3.17;;;2.43;;
15153;SDS011;7677;41.896;25.004;2023-04-06T11:41:36;3.87;;;3.17;;
15153;SDS011;7677;41.896;25.004;2023-04-06T11:44:03;4.00;;;2.60;;
15153;SDS011;7677;41.896;25.004;2023-04-06T11:46:32;3.40;;;2.73;;
15153;SDS011;7677;41.896;25.004;2023-04-06T11:49:00;4.03;;;3.03;;
15153;SDS011;7677;41.896;25.004;2023-04-06T11:51:27;2.63;;;2.43;;
15153;SDS011;7677;41.896;25.004;2023-04-06T11:53:55;2.83;;;2.50;;
15153;SDS011;7677;41.896;25.004;2023-04-06T11:56:23;2.40;;;2.20;;
15153;SDS011;7677;41.896;25.004;2023-04-06T11:58:51;2.17;;;2.07;;
15153;SDS011;7677;41.896;25.004;2023-04-06T12:04:12;2.30;;;2.10;;
15153;SDS011;7677;41.896;25.004;2023-04-06T12:06:39;4.50;;;2.83;;
15153;SDS011;7677;41.896;25.004;2023-04-06T12:09:07;3.20;;;2.70;;
15153;SDS011;7677;41.896;25.004;2023-04-06T12:11:34;2.30;;;2.13;;
15153;SDS011;7677;41.896;25.004;2023-04-06T12:14:01;3.97;;;2.50;;
15153;SDS011;7677;41.896;25.004;2023-04-06T12:16:30;2.97;;;2.73;;
15153;SDS011;7677;41.896;25.004;2023-04-06T12:18:58;4.37;;;3.33;;
15153;SDS011;7677;41.896;25.004;2023-04-06T12:21:26;4.03;;;3.37;;
15153;SDS011;7677;41.896;25.004;2023-04-06T12:23:56;2.90;;;2.50;;
15153;SDS011;7677;41.896;25.004;2023-04-06T12:26:23;3.40;;;3.03;;
15153;SDS011;7677;41.896;25.004;2023-04-06T12:28:51;2.93;;;2.63;;
15153;SDS011;7677;41.896;25.004;2023-04-06T12:31:19;4.10;;;2.93;;
15153;SDS011;7677;41.896;25.004;2023-04-06T12:33:48;5.10;;;3.70;;
15153;SDS011;7677;41.896;25.004;2023-04-06T12:36:17;3.87;;;3.50;;
15153;SDS011;7677;41.896;25.004;2023-04-06T12:38:46;4.90;;;3.40;;
15153;SDS011;7677;41.896;25.004;2023-04-06T12:41:15;3.20;;;2.90;;
15153;SDS011;7677;41.896;25.004;2023-04-06T12:43:43;4.93;;;4.23;;
15153;SDS011;7677;41.896;25.004;2023-04-06T12:46:20;3.40;;;3.10;;
15153;SDS011;7677;41.896;25.004;2023-04-06T12:48:47;3.37;;;2.70;;
15153;SDS011;7677;41.896;25.004;2023-04-06T12:51:30;7.03;;;3.20;;
15153;SDS011;7677;41.896;25.004;2023-04-06T12:53:57;3.30;;;3.00;;
15153;SDS011;7677;41.896;25.004;2023-04-06T12:56:25;4.17;;;3.60;;
15153;SDS011;7677;41.896;25.004;2023-04-06T12:58:52;4.17;;;3.73;;
15153;SDS011;7677;41.896;25.004;2023-04-06T13:01:20;4.13;;;3.73;;
15153;SDS011;7677;41.896;25.004;2023-04-06T13:03:47;3.57;;;2.97;;
15153;SDS011;7677;41.896;25.004;2023-04-06T13:06:26;3.40;;;3.10;;
15153;SDS011;7677;41.896;25.004;2023-04-06T13:09:00;3.90;;;3.10;;
15153;SDS011;7677;41.896;25.004;2023-04-06T13:11:29;2.63;;;2.43;;
15153;SDS011;7677;41.896;25.004;2023-04-06T13:13:56;3.13;;;2.80;;
15153;SDS011;7677;41.896;25.004;2023-04-06T13:16:23;4.10;;;3.23;;
15153;SDS011;7677;41.896;25.004;2023-04-06T13:18:51;3.83;;;3.10;;
15153;SDS011;7677;41.896;25.004;2023-04-06T13:21:18;3.63;;;3.00;;
15153;SDS011;7677;41.896;25.004;2023-04-06T13:23:46;2.87;;;2.30;;
15153;SDS011;7677;41.896;25.004;2023-04-06T13:26:14;3.17;;;2.77;;
15153;SDS011;7677;41.896;25.004;2023-04-06T13:28:42;3.37;;;2.87;;
15153;SDS011;7677;41.896;25.004;2023-04-06T13:31:09;3.30;;;2.93;;
15153;SDS011;7677;41.896;25.004;2023-04-06T13:33:36;2.80;;;2.60;;
15153;SDS011;7677;41.896;25.004;2023-04-06T13:36:06;5.23;;;3.83;;
15153;SDS011;7677;41.896;25.004;2023-04-06T13:38:33;4.57;;;3.80;;
15153;SDS011;7677;41.896;25.004;2023-04-06T13:41:01;5.13;;;3.57;;
15153;SDS011;7677;41.896;25.004;2023-04-06T13:43:29;4.87;;;3.83;;
15153;SDS011;7677;41.896;25.004;2023-04-06T13:45:57;6.60;;;4.17;;
15153;SDS011;7677;41.896;25.004;2023-04-06T13:48:25;5.87;;;3.97;;
15153;SDS011;7677;41.896;25.004;2023-04-06T13:50:53;5.90;;;4.10;;
15153;SDS011;7677;41.896;25.004;2023-04-06T13:53:20;5.33;;;4.13;;
15153;SDS011;7677;41.896;25.004;2023-04-06T13:55:52;8.93;;;4.87;;
15153;SDS011;7677;41.896;25.004;2023-04-06T13:58:22;6.13;;;4.60;;
15153;SDS011;7677;41.896;25.004;2023-04-06T14:00:51;8.60;;;5.20;;
15153;SDS011;7677;41.896;25.004;2023-04-06T14:03:19;6.97;;;5.87;;
15153;SDS011;7677;41.896;25.004;2023-04-06T14:05:46;11.07;;;6.73;;
15153;SDS011;7677;41.896;25.004;2023-04-06T14:08:13;5.90;;;5.30;;
15153;SDS011;7677;41.896;25.004;2023-04-06T14:10:41;7.67;;;5.00;;
15153;SDS011;7677;41.896;25.004;2023-04-06T14:13:08;6.77;;;4.83;;
15153;SDS011;7677;41.896;25.004;2023-04-06T14:15:35;6.73;;;4.70;;
15153;SDS011;7677;41.896;25.004;2023-04-06T14:18:14;5.50;;;4.37;;
15153;SDS011;7677;41.896;25.004;2023-04-06T14:20:41;4.97;;;4.17;;
15153;SDS011;7677;41.896;25.004;2023-04-06T14:23:09;10.10;;;5.57;;
15153;SDS011;7677;41.896;25.004;2023-04-06T14:25:36;6.67;;;5.23;;
15153;SDS011;7677;41.896;25.004;2023-04-06T14:28:15;8.73;;;5.90;;
15153;SDS011;7677;41.896;25.004;2023-04-06T14:30:42;6.93;;;6.07;;
15153;SDS011;7677;41.896;25.004;2023-04-06T14:33:10;5.70;;;4.53;;
15153;SDS011;7677;41.896;25.004;2023-04-06T14:35:39;7.37;;;5.73;;
15153;SDS011;7677;41.896;25.004;2023-04-06T14:38:06;6.70;;;4.67;;
15153;SDS011;7677;41.896;25.004;2023-04-06T14:40:34;6.20;;;5.60;;
15153;SDS011;7677;41.896;25.004;2023-04-06T14:43:02;7.27;;;5.80;;
15153;SDS011;7677;41.896;25.004;2023-04-06T14:45:32;6.40;;;5.00;;
15153;SDS011;7677;41.896;25.004;2023-04-06T14:48:02;6.40;;;5.50;;
15153;SDS011;7677;41.896;25.004;2023-04-06T14:50:31;9.73;;;5.70;;
15153;SDS011;7677;41.896;25.004;2023-04-06T14:53:00;6.40;;;5.10;;
15153;SDS011;7677;41.896;25.004;2023-04-06T14:55:28;8.07;;;6.03;;
15153;SDS011;7677;41.896;25.004;2023-04-06T14:57:55;6.37;;;4.97;;
15153;SDS011;7677;41.896;25.004;2023-04-06T15:00:22;6.80;;;5.00;;